createdAt,value
2018-02-20T00:00:31.086Z,0.00
2018-02-20T00:01:31.061Z,0.00
2018-02-20T00:02:31.043Z,0.00
2018-02-20T00:03:31.019Z,0.00
2018-02-20T00:04:31.003Z,0.00
2018-02-20T00:05:30.972Z,0.00
2018-02-20T00:06:30.953Z,0.00
2018-02-20T00:07:30.928Z,0.00
2018-02-20T00:08:30.905Z,0.00
2018-02-20T00:09:30.883Z,0.00
2018-02-20T00:10:30.860Z,0.00
2018-02-20T00:11:30.844Z,0.00
2018-02-20T00:12:30.819Z,0.00
2018-02-20T00:13:30.796Z,0.00
2018-02-20T00:14:30.773Z,0.00
2018-02-20T00:15:30.749Z,0.00
2018-02-20T00:16:30.725Z,0.00
2018-02-20T00:17:30.702Z,0.00
2018-02-20T00:18:30.683Z,0.00
2018-02-20T00:19:30.661Z,0.00
2018-02-20T00:20:30.641Z,0.00
2018-02-20T00:21:30.613Z,0.00
2018-02-20T00:22:30.594Z,0.00
2018-02-20T00:23:30.571Z,0.00
2018-02-20T00:24:30.547Z,0.00
2018-02-20T00:25:30.526Z,0.00
2018-02-20T00:26:30.514Z,0.00
2018-02-20T00:27:30.484Z,0.00
2018-02-20T00:28:30.462Z,0.00
2018-02-20T00:29:30.443Z,0.00
2018-02-20T00:30:30.415Z,0.00
2018-02-20T00:31:30.391Z,0.00
2018-02-20T00:32:30.372Z,0.00
2018-02-20T00:33:30.345Z,0.00
2018-02-20T00:34:30.472Z,0.00
2018-02-20T00:35:30.303Z,0.00
2018-02-20T00:36:30.290Z,0.00
2018-02-20T00:37:30.608Z,0.00
2018-02-20T00:38:30.367Z,0.00
2018-02-20T00:39:30.216Z,0.00
2018-02-20T00:40:30.197Z,0.00
2018-02-20T00:41:30.168Z,0.00
2018-02-20T00:42:30.153Z,0.00
2018-02-20T00:43:30.122Z,0.00
2018-02-20T00:44:30.114Z,0.00
2018-02-20T00:45:30.080Z,0.00
2018-02-20T00:46:30.063Z,0.00
2018-02-20T00:47:30.036Z,0.00
2018-02-20T00:48:30.011Z,0.00
2018-02-20T00:49:29.991Z,0.00
2018-02-20T00:50:29.970Z,0.00
2018-02-20T00:51:29.943Z,0.00
2018-02-20T00:52:29.919Z,0.00
2018-02-20T00:53:29.897Z,0.00
2018-02-20T00:54:29.882Z,0.00
2018-02-20T00:55:29.858Z,0.00
2018-02-20T00:56:29.832Z,0.00
2018-02-20T00:57:29.810Z,0.00
2018-02-20T00:58:29.785Z,0.00
2018-02-20T00:59:29.762Z,0.00
2018-02-20T01:00:29.742Z,0.00
2018-02-20T01:01:29.717Z,0.00
2018-02-20T01:02:29.702Z,0.00
2018-02-20T01:03:29.674Z,0.00
2018-02-20T01:04:29.653Z,0.00
2018-02-20T01:05:29.631Z,0.00
2018-02-20T01:06:29.610Z,0.00
2018-02-20T01:07:29.587Z,0.00
2018-02-20T01:08:29.561Z,0.00
2018-02-20T01:09:29.543Z,0.00
2018-02-20T01:10:29.524Z,0.00
2018-02-20T01:11:29.495Z,0.00
2018-02-20T01:12:29.476Z,0.00
2018-02-20T01:13:29.461Z,0.00
2018-02-20T01:14:29.429Z,0.00
2018-02-20T01:15:29.417Z,0.00
2018-02-20T01:16:29.386Z,0.00
2018-02-20T01:17:29.364Z,0.00
2018-02-20T01:18:29.348Z,0.00
2018-02-20T01:19:29.319Z,0.00
2018-02-20T01:20:29.293Z,0.00
2018-02-20T01:21:29.272Z,0.00
2018-02-20T01:22:29.253Z,0.00
2018-02-20T01:23:29.233Z,0.00
2018-02-20T01:24:29.207Z,0.00
2018-02-20T01:25:29.437Z,0.00
2018-02-20T01:26:29.159Z,0.00
2018-02-20T01:27:29.138Z,0.00
2018-02-20T01:28:29.123Z,0.00
2018-02-20T01:29:29.093Z,0.00
2018-02-20T01:30:29.073Z,0.00
2018-02-20T01:31:29.047Z,0.00
2018-02-20T01:32:29.028Z,0.00
2018-02-20T01:33:29.005Z,0.00
2018-02-20T01:34:28.983Z,0.00
2018-02-20T01:35:28.960Z,0.00
2018-02-20T01:36:28.936Z,0.00
2018-02-20T01:37:28.915Z,0.00
2018-02-20T01:38:28.895Z,0.00
2018-02-20T01:39:28.866Z,0.00
2018-02-20T01:40:28.848Z,0.00
2018-02-20T01:41:28.827Z,0.00
2018-02-20T01:42:28.805Z,0.00
2018-02-20T01:43:28.778Z,0.00
2018-02-20T01:44:28.764Z,0.00
2018-02-20T01:45:28.735Z,0.00
2018-02-20T01:46:28.713Z,0.00
2018-02-20T01:47:28.691Z,0.00
2018-02-20T01:48:28.674Z,0.00
2018-02-20T01:49:28.646Z,0.00
2018-02-20T01:50:28.623Z,0.00
2018-02-20T01:51:28.607Z,0.00
2018-02-20T01:52:28.579Z,0.00
2018-02-20T01:53:28.556Z,0.00
2018-02-20T01:54:28.534Z,0.00
2018-02-20T01:55:28.513Z,0.00
2018-02-20T01:56:28.493Z,0.00
2018-02-20T01:57:28.467Z,0.00
2018-02-20T01:58:28.443Z,0.00
2018-02-20T01:59:28.474Z,0.00
2018-02-20T02:00:28.408Z,0.00
2018-02-20T02:01:28.382Z,0.00
2018-02-20T02:02:28.356Z,0.00
2018-02-20T02:03:28.381Z,0.00
2018-02-20T02:04:28.314Z,0.00
2018-02-20T02:05:28.292Z,0.00
2018-02-20T02:06:28.263Z,0.00
2018-02-20T02:07:28.343Z,0.00
2018-02-20T02:08:28.325Z,0.00
2018-02-20T02:09:28.198Z,0.00
2018-02-20T02:10:28.176Z,0.00
2018-02-20T02:11:28.154Z,0.00
2018-02-20T02:12:28.127Z,0.00
2018-02-20T02:13:28.205Z,0.00
2018-02-20T02:14:28.084Z,0.00
2018-02-20T02:15:28.212Z,0.00
2018-02-20T02:16:28.044Z,0.00
2018-02-20T02:17:28.024Z,0.00
2018-02-20T02:18:28.000Z,0.00
2018-02-20T02:19:27.996Z,0.00
2018-02-20T02:20:27.954Z,0.00
2018-02-20T02:21:27.930Z,0.00
2018-02-20T02:22:27.905Z,0.00
2018-02-20T02:23:28.036Z,0.00
2018-02-20T02:24:27.859Z,0.00
2018-02-20T02:25:27.838Z,0.00
2018-02-20T02:26:27.818Z,0.00
2018-02-20T02:27:27.936Z,0.00
2018-02-20T02:28:27.770Z,0.00
2018-02-20T02:29:27.754Z,0.00
2018-02-20T02:30:27.729Z,0.00
2018-02-20T02:31:27.707Z,0.00
2018-02-20T02:32:27.684Z,0.00
2018-02-20T02:33:27.661Z,0.00
2018-02-20T02:34:27.643Z,0.00
2018-02-20T02:35:27.625Z,0.00
2018-02-20T02:36:27.621Z,0.00
2018-02-20T02:37:27.574Z,0.00
2018-02-20T02:38:27.546Z,0.00
2018-02-20T02:39:27.522Z,0.00
2018-02-20T02:40:27.503Z,0.00
2018-02-20T02:41:27.484Z,0.00
2018-02-20T02:42:27.460Z,0.00
2018-02-20T02:43:27.433Z,0.00
2018-02-20T02:44:27.409Z,0.00
2018-02-20T02:45:27.392Z,0.00
2018-02-20T02:46:27.369Z,0.00
2018-02-20T02:47:27.350Z,0.00
2018-02-20T02:48:27.321Z,0.00
2018-02-20T02:49:27.301Z,0.00
2018-02-20T02:50:27.278Z,0.00
2018-02-20T02:51:27.257Z,0.00
2018-02-20T02:52:27.228Z,0.00
2018-02-20T02:53:27.212Z,0.00
2018-02-20T02:54:27.186Z,0.00
2018-02-20T02:55:27.166Z,0.00
2018-02-20T02:56:27.139Z,0.00
2018-02-20T02:57:27.118Z,0.00
2018-02-20T02:58:27.102Z,0.00
2018-02-20T02:59:27.072Z,0.00
2018-02-20T03:00:27.050Z,0.00
2018-02-20T03:01:27.030Z,0.00
2018-02-20T03:02:27.008Z,0.00
2018-02-20T03:03:27.234Z,0.00
2018-02-20T03:04:26.963Z,0.00
2018-02-20T03:05:26.937Z,0.00
2018-02-20T03:06:26.916Z,0.00
2018-02-20T03:07:26.893Z,0.00
2018-02-20T03:08:26.872Z,0.00
2018-02-20T03:09:26.848Z,0.00
2018-02-20T03:10:26.834Z,0.00
2018-02-20T03:11:26.803Z,0.00
2018-02-20T03:12:26.781Z,0.00
2018-02-20T03:13:26.765Z,0.00
2018-02-20T03:14:27.235Z,0.00
2018-02-20T03:15:26.716Z,0.00
2018-02-20T03:16:26.688Z,0.00
2018-02-20T03:17:26.677Z,0.00
2018-02-20T03:18:26.646Z,0.00
2018-02-20T03:19:26.620Z,0.00
2018-02-20T03:20:26.600Z,0.00
2018-02-20T03:21:26.579Z,0.00
2018-02-20T03:22:26.561Z,0.00
2018-02-20T03:23:26.533Z,0.00
2018-02-20T03:24:26.512Z,0.00
2018-02-20T03:25:26.490Z,0.00
2018-02-20T03:26:26.465Z,0.00
2018-02-20T03:27:26.442Z,0.00
2018-02-20T03:28:26.424Z,0.00
2018-02-20T03:29:26.403Z,0.00
2018-02-20T03:30:26.377Z,0.00
2018-02-20T03:31:26.355Z,0.00
2018-02-20T03:32:26.333Z,0.00
2018-02-20T03:33:26.308Z,0.00
2018-02-20T03:34:26.295Z,0.00
2018-02-20T03:35:26.266Z,0.00
2018-02-20T03:36:26.243Z,0.00
2018-02-20T03:37:26.220Z,0.00
2018-02-20T03:38:26.203Z,0.00
2018-02-20T03:39:26.176Z,0.00
2018-02-20T03:40:26.156Z,0.00
2018-02-20T03:41:26.134Z,0.00
2018-02-20T03:42:26.109Z,0.00
2018-02-20T03:43:26.093Z,0.00
2018-02-20T03:44:26.113Z,0.00
2018-02-20T03:45:26.041Z,0.00
2018-02-20T03:46:26.019Z,0.00
2018-02-20T03:47:25.993Z,0.00
2018-02-20T03:48:26.025Z,0.00
2018-02-20T03:49:26.053Z,0.00
2018-02-20T03:50:25.932Z,0.00
2018-02-20T03:51:25.906Z,0.00
2018-02-20T03:52:25.884Z,0.00
2018-02-20T03:53:25.862Z,0.00
2018-02-20T03:54:25.942Z,0.00
2018-02-20T03:55:25.814Z,0.00
2018-02-20T03:56:25.792Z,0.00
2018-02-20T03:57:25.772Z,0.00
2018-02-20T03:58:25.853Z,0.00
2018-02-20T03:59:25.729Z,0.00
2018-02-20T04:00:25.803Z,0.00
2018-02-20T04:01:25.680Z,0.00
2018-02-20T04:02:25.659Z,0.00
2018-02-20T04:03:25.639Z,0.00
2018-02-20T04:04:25.612Z,0.00
2018-02-20T04:05:25.592Z,0.00
2018-02-20T04:06:25.571Z,0.00
2018-02-20T04:07:25.546Z,0.00
2018-02-20T04:08:25.522Z,0.00
2018-02-20T04:09:25.807Z,0.00
2018-02-20T04:10:25.481Z,0.00
2018-02-20T04:11:25.454Z,0.00
2018-02-20T04:12:25.432Z,0.00
2018-02-20T04:13:25.412Z,0.00
2018-02-20T04:14:25.390Z,0.00
2018-02-20T04:15:25.373Z,0.00
2018-02-20T04:16:25.343Z,0.00
2018-02-20T04:17:25.324Z,0.00
2018-02-20T04:18:25.299Z,0.00
2018-02-20T04:19:25.275Z,0.00
2018-02-20T04:20:25.251Z,0.00
2018-02-20T04:21:25.231Z,0.00
2018-02-20T04:22:25.363Z,0.00
2018-02-20T04:23:25.237Z,0.00
2018-02-20T04:24:25.412Z,0.00
2018-02-20T04:25:25.140Z,0.00
2018-02-20T04:26:25.127Z,0.00
2018-02-20T04:27:25.092Z,0.00
2018-02-20T04:28:25.078Z,0.00
2018-02-20T04:29:25.301Z,0.00
2018-02-20T04:30:25.027Z,0.00
2018-02-20T04:31:25.064Z,0.00
2018-02-20T04:32:24.983Z,0.00
2018-02-20T04:33:24.964Z,0.00
2018-02-20T04:34:25.188Z,0.00
2018-02-20T04:35:24.915Z,0.00
2018-02-20T04:36:24.892Z,0.00
2018-02-20T04:37:24.871Z,0.00
2018-02-20T04:38:24.851Z,0.00
2018-02-20T04:39:24.822Z,0.00
2018-02-20T04:40:24.806Z,0.00
2018-02-20T04:41:24.776Z,0.00
2018-02-20T04:42:24.756Z,0.00
2018-02-20T04:43:24.735Z,0.00
2018-02-20T04:44:24.718Z,0.00
2018-02-20T04:45:24.687Z,0.00
2018-02-20T04:46:24.665Z,0.00
2018-02-20T04:47:24.640Z,0.00
2018-02-20T04:48:24.623Z,0.00
2018-02-20T04:49:24.596Z,0.00
2018-02-20T04:50:24.573Z,0.00
2018-02-20T04:51:24.552Z,0.00
2018-02-20T04:52:24.529Z,0.00
2018-02-20T04:53:24.505Z,0.00
2018-02-20T04:54:50.355Z,0.00
2018-02-20T04:55:50.065Z,0.00
2018-02-20T04:56:50.041Z,0.00
2018-02-20T04:57:50.019Z,0.00
2018-02-20T04:58:50.003Z,0.00
2018-02-20T04:59:49.975Z,0.00
2018-02-20T05:00:49.955Z,0.00
2018-02-20T05:01:49.971Z,0.00
2018-02-20T05:02:49.915Z,0.00
2018-02-20T05:03:49.884Z,0.00
2018-02-20T05:04:49.859Z,0.00
2018-02-20T05:05:49.841Z,0.00
2018-02-20T05:06:49.814Z,0.00
2018-02-20T05:07:49.794Z,0.00
2018-02-20T05:08:49.777Z,0.00
2018-02-20T05:09:49.853Z,0.00
2018-02-20T05:10:49.729Z,0.00
2018-02-20T05:11:49.704Z,0.00
2018-02-20T05:12:49.695Z,0.00
2018-02-20T05:13:49.661Z,0.00
2018-02-20T05:14:49.652Z,0.00
2018-02-20T05:15:49.615Z,0.00
2018-02-20T05:16:49.587Z,0.00
2018-02-20T05:17:49.569Z,0.00
2018-02-20T05:18:49.542Z,0.00
2018-02-20T05:19:49.519Z,0.00
2018-02-20T05:20:49.498Z,0.00
2018-02-20T05:21:49.474Z,0.00
2018-02-20T05:22:49.454Z,0.00
2018-02-20T05:23:49.434Z,0.00
2018-02-20T05:24:49.408Z,0.00
2018-02-20T05:25:49.383Z,0.00
2018-02-20T05:26:49.365Z,0.00
2018-02-20T05:27:49.339Z,0.00
2018-02-20T05:28:49.420Z,4.00
2018-02-20T05:29:49.304Z,4.00
2018-02-20T05:30:49.269Z,4.00
2018-02-20T05:31:49.249Z,4.00
2018-02-20T05:32:49.225Z,0.00
2018-02-20T05:33:49.204Z,0.00
2018-02-20T05:34:49.185Z,0.00
2018-02-20T05:35:49.161Z,0.00
2018-02-20T05:36:49.134Z,0.00
2018-02-20T05:37:49.113Z,0.00
2018-02-20T05:38:49.090Z,4.00
2018-02-20T05:39:49.068Z,4.00
2018-02-20T05:40:49.044Z,4.00
2018-02-20T05:41:49.023Z,0.00
2018-02-20T05:42:49.002Z,4.00
2018-02-20T05:43:49.023Z,4.00
2018-02-20T05:44:48.952Z,4.00
2018-02-20T05:45:48.935Z,4.00
2018-02-20T05:46:48.909Z,4.00
2018-02-20T05:47:48.885Z,8.00
2018-02-20T05:48:48.861Z,8.00
2018-02-20T05:49:48.844Z,8.00
2018-02-20T05:50:48.820Z,12.00
2018-02-20T05:51:48.796Z,16.00
2018-02-20T05:52:48.775Z,20.00
2018-02-20T05:53:48.752Z,20.00
2018-02-20T05:54:48.733Z,20.00
2018-02-20T05:55:48.705Z,24.00
2018-02-20T05:56:48.686Z,32.00
2018-02-20T05:57:48.702Z,36.00
2018-02-20T05:58:48.639Z,44.00
2018-02-20T05:59:48.616Z,48.00
2018-02-20T06:00:48.605Z,56.00
2018-02-20T06:01:48.574Z,64.00
2018-02-20T06:02:48.551Z,72.00
2018-02-20T06:03:48.525Z,80.00
2018-02-20T06:04:48.511Z,92.00
2018-02-20T06:05:48.732Z,104.00
2018-02-20T06:06:48.463Z,116.00
2018-02-20T06:07:48.437Z,128.00
2018-02-20T06:08:48.409Z,144.00
2018-02-20T06:09:48.386Z,156.00
2018-02-20T06:10:48.366Z,176.00
2018-02-20T06:11:48.342Z,192.00
2018-02-20T06:12:48.317Z,208.00
2018-02-20T06:13:48.296Z,228.00
2018-02-20T06:14:48.275Z,252.00
2018-02-20T06:15:48.251Z,272.00
2018-02-20T06:16:48.229Z,296.00
2018-02-20T06:17:48.211Z,320.00
2018-02-20T06:18:48.186Z,356.00
2018-02-20T06:19:48.161Z,388.00
2018-02-20T06:20:48.137Z,428.00
2018-02-20T06:21:48.121Z,468.00
2018-02-20T06:22:48.094Z,516.00
2018-02-20T06:23:48.078Z,556.00
2018-02-20T06:24:48.049Z,604.00
2018-02-20T06:25:48.025Z,656.00
2018-02-20T06:26:48.002Z,708.00
2018-02-20T06:27:47.979Z,760.00
2018-02-20T06:28:47.962Z,824.00
2018-02-20T06:29:47.936Z,888.00
2018-02-20T06:30:48.212Z,956.00
2018-02-20T06:31:47.892Z,1028.00
2018-02-20T06:32:47.868Z,1100.00
2018-02-20T06:33:47.845Z,1176.00
2018-02-20T06:34:47.825Z,1256.00
2018-02-20T06:35:47.799Z,1332.00
2018-02-20T06:36:47.777Z,1404.00
2018-02-20T06:37:47.755Z,1480.00
2018-02-20T06:38:47.759Z,1572.00
2018-02-20T06:39:47.707Z,1676.00
2018-02-20T06:40:47.686Z,1796.00
2018-02-20T06:41:47.666Z,1924.00
2018-02-20T06:42:47.647Z,2052.00
2018-02-20T06:43:47.619Z,2172.00
2018-02-20T06:44:47.596Z,2288.00
2018-02-20T06:45:47.571Z,2396.00
2018-02-20T06:46:47.552Z,2500.00
2018-02-20T06:47:47.527Z,2604.00
2018-02-20T06:48:47.505Z,2708.00
2018-02-20T06:49:47.482Z,2812.00
2018-02-20T06:50:47.463Z,2920.00
2018-02-20T06:51:47.454Z,3020.00
2018-02-20T06:52:47.416Z,3120.00
2018-02-20T06:53:47.401Z,3232.00
2018-02-20T06:54:47.376Z,3340.00
2018-02-20T06:55:47.346Z,3428.00
2018-02-20T06:56:47.584Z,3516.00
2018-02-20T06:57:47.305Z,3608.00
2018-02-20T06:58:47.281Z,3700.00
2018-02-20T06:59:47.259Z,3780.00
2018-02-20T07:00:47.233Z,3864.00
2018-02-20T07:01:47.463Z,3944.00
2018-02-20T07:02:47.240Z,4020.00
2018-02-20T07:03:47.167Z,4096.00
2018-02-20T07:04:47.146Z,4168.00
2018-02-20T07:05:47.130Z,4248.00
2018-02-20T07:06:47.355Z,4296.00
2018-02-20T07:07:47.076Z,4328.00
2018-02-20T07:08:47.054Z,4360.00
2018-02-20T07:09:47.037Z,4400.00
2018-02-20T07:10:47.073Z,4436.00
2018-02-20T07:11:46.987Z,4472.00
2018-02-20T07:12:46.964Z,4520.00
2018-02-20T07:13:46.940Z,4576.00
2018-02-20T07:14:46.928Z,4632.00
2018-02-20T07:15:46.899Z,4680.00
2018-02-20T07:16:46.873Z,4736.00
2018-02-20T07:17:47.101Z,4804.00
2018-02-20T07:18:46.831Z,4844.00
2018-02-20T07:19:46.809Z,4896.00
2018-02-20T07:20:46.786Z,4992.00
2018-02-20T07:21:46.762Z,5080.00
2018-02-20T07:22:46.742Z,5160.00
2018-02-20T07:23:46.718Z,5252.00
2018-02-20T07:24:46.709Z,5360.00
2018-02-20T07:25:46.678Z,5460.00
2018-02-20T07:26:46.750Z,5524.00
2018-02-20T07:27:46.887Z,5596.00
2018-02-20T07:28:46.657Z,5696.00
2018-02-20T07:29:46.636Z,5824.00
2018-02-20T07:30:46.563Z,5912.00
2018-02-20T07:31:46.595Z,6016.00
2018-02-20T07:32:46.519Z,6136.00
2018-02-20T07:33:46.646Z,6236.00
2018-02-20T07:34:46.476Z,6344.00
2018-02-20T07:35:46.553Z,6500.00
2018-02-20T07:36:46.434Z,6588.00
2018-02-20T07:37:46.505Z,6704.00
2018-02-20T07:38:46.386Z,6824.00
2018-02-20T07:39:46.426Z,6920.00
2018-02-20T07:40:46.346Z,7012.00
2018-02-20T07:41:46.323Z,7096.00
2018-02-20T07:42:46.296Z,7236.00
2018-02-20T07:43:46.526Z,7300.00
2018-02-20T07:44:46.252Z,7376.00
2018-02-20T07:45:46.236Z,7484.00
2018-02-20T07:46:46.211Z,7488.00
2018-02-20T07:47:46.276Z,7500.00
2018-02-20T07:48:46.161Z,7544.00
2018-02-20T07:49:46.150Z,7636.00
2018-02-20T07:50:46.120Z,7716.00
2018-02-20T07:51:46.099Z,7660.00
2018-02-20T07:52:46.076Z,7664.00
2018-02-20T07:53:46.307Z,7720.00
2018-02-20T07:54:46.030Z,7736.00
2018-02-20T07:55:46.159Z,7748.00
2018-02-20T07:56:45.986Z,7764.00
2018-02-20T07:57:46.052Z,7844.00
2018-02-20T07:58:46.194Z,7992.00
2018-02-20T07:59:45.925Z,7996.00
2018-02-20T08:00:45.901Z,8152.00
2018-02-20T08:01:45.877Z,8324.00
2018-02-20T08:02:45.853Z,8436.00
2018-02-20T08:03:45.831Z,8632.00
2018-02-20T08:04:45.815Z,8692.00
2018-02-20T08:05:45.791Z,8716.00
2018-02-20T08:06:45.767Z,9048.00
2018-02-20T08:07:45.745Z,9204.00
2018-02-20T08:08:45.726Z,9196.00
2018-02-20T08:09:45.701Z,9228.00
2018-02-20T08:10:45.679Z,9440.00
2018-02-20T08:11:45.656Z,9516.00
2018-02-20T08:12:45.635Z,9656.00
2018-02-20T08:13:45.619Z,9708.00
2018-02-20T08:14:45.593Z,9884.00
2018-02-20T08:15:45.569Z,10012.00
2018-02-20T08:16:45.546Z,10292.00
2018-02-20T08:17:45.532Z,10148.00
2018-02-20T08:18:45.508Z,10212.00
2018-02-20T08:19:45.738Z,10176.00
2018-02-20T08:20:45.460Z,10512.00
2018-02-20T08:21:45.440Z,10604.00
2018-02-20T08:22:45.419Z,10716.00
2018-02-20T08:23:45.401Z,10792.00
2018-02-20T08:24:45.626Z,10724.00
2018-02-20T08:25:45.352Z,10924.00
2018-02-20T08:26:45.331Z,11112.00
2018-02-20T08:27:45.312Z,11584.00
2018-02-20T08:28:45.285Z,11980.00
2018-02-20T08:29:45.290Z,11900.00
2018-02-20T08:30:45.243Z,12040.00
2018-02-20T08:31:45.223Z,12172.00
2018-02-20T08:32:45.209Z,12556.00
2018-02-20T08:33:45.180Z,12912.00
2018-02-20T08:34:45.158Z,12664.00
2018-02-20T08:35:45.136Z,12756.00
2018-02-20T08:36:45.122Z,13160.00
2018-02-20T08:37:45.096Z,13404.00
2018-02-20T08:38:45.071Z,13592.00
2018-02-20T08:39:45.055Z,14104.00
2018-02-20T08:40:45.033Z,14440.00
2018-02-20T08:41:45.006Z,19264.00
2018-02-20T08:42:44.985Z,23712.00
2018-02-20T08:43:44.967Z,25664.00
2018-02-20T08:44:45.190Z,30560.00
2018-02-20T08:45:44.925Z,33024.00
2018-02-20T08:46:44.944Z,32960.00
2018-02-20T08:47:44.905Z,30496.00
2018-02-20T08:48:44.864Z,23840.00
2018-02-20T08:49:44.838Z,28672.00
2018-02-20T08:50:44.816Z,30784.00
2018-02-20T08:51:44.799Z,32448.00
2018-02-20T08:52:44.776Z,29760.00
2018-02-20T08:53:44.757Z,26816.00
2018-02-20T08:54:44.738Z,29152.00
2018-02-20T08:55:44.968Z,27808.00
2018-02-20T08:56:44.694Z,26464.00
2018-02-20T08:57:44.676Z,21760.00
2018-02-20T08:58:44.659Z,19808.00
2018-02-20T08:59:44.641Z,26720.00
2018-02-20T09:00:44.618Z,31968.00
2018-02-20T09:01:44.605Z,28416.00
2018-02-20T09:02:44.578Z,29248.00
2018-02-20T09:03:44.563Z,25216.00
2018-02-20T09:04:44.538Z,21376.00
2018-02-20T09:05:44.522Z,21440.00
2018-02-20T09:06:44.500Z,22560.00
2018-02-20T09:07:44.484Z,18496.00
2018-02-20T09:08:44.484Z,17280.00
2018-02-20T09:09:44.444Z,16148.00
2018-02-20T09:10:44.428Z,16792.00
2018-02-20T09:11:44.405Z,16944.00
2018-02-20T09:12:44.385Z,14980.00
2018-02-20T09:13:44.373Z,14936.00
2018-02-20T09:14:44.348Z,16900.00
2018-02-20T09:15:44.330Z,19936.00
2018-02-20T09:16:44.316Z,18432.00
2018-02-20T09:17:44.293Z,15676.00
2018-02-20T09:18:44.311Z,17120.00
2018-02-20T09:19:44.253Z,17632.00
2018-02-20T09:20:44.238Z,16372.00
2018-02-20T09:21:44.591Z,17696.00
2018-02-20T09:22:44.199Z,21152.00
2018-02-20T09:23:44.184Z,24896.00
2018-02-20T09:24:44.166Z,21120.00
2018-02-20T09:25:44.143Z,20000.00
2018-02-20T09:26:44.128Z,21824.00
2018-02-20T09:27:44.104Z,19840.00
2018-02-20T09:28:44.138Z,19744.00
2018-02-20T09:29:44.064Z,17272.00
2018-02-20T09:30:44.049Z,17204.00
2018-02-20T09:31:44.280Z,18656.00
2018-02-20T09:32:44.004Z,19744.00
2018-02-20T09:33:43.993Z,18144.00
2018-02-20T09:34:43.969Z,17952.00
2018-02-20T09:35:43.949Z,16668.00
2018-02-20T09:36:44.178Z,16812.00
2018-02-20T09:37:43.914Z,17184.00
2018-02-20T09:38:43.893Z,17204.00
2018-02-20T09:39:43.876Z,17472.00
2018-02-20T09:40:43.855Z,17808.00
2018-02-20T09:41:43.835Z,18272.00
2018-02-20T09:42:43.821Z,18752.00
2018-02-20T09:43:43.796Z,18976.00
2018-02-20T09:44:43.777Z,19424.00
2018-02-20T09:45:43.764Z,19648.00
2018-02-20T09:46:43.743Z,20224.00
2018-02-20T09:47:43.725Z,20864.00
2018-02-20T09:48:43.700Z,25344.00
2018-02-20T09:49:43.686Z,32928.00
2018-02-20T09:50:43.663Z,35648.00
2018-02-20T09:51:43.643Z,39648.00
2018-02-20T09:52:43.625Z,39264.00
2018-02-20T09:53:43.614Z,41248.00
2018-02-20T09:54:43.586Z,49984.00
2018-02-20T09:55:43.569Z,51424.00
2018-02-20T09:56:43.550Z,42592.00
2018-02-20T09:57:43.530Z,46400.00
2018-02-20T09:58:43.515Z,50816.00
2018-02-20T09:59:43.496Z,55904.00
2018-02-20T10:00:43.479Z,58656.00
2018-02-20T10:01:43.459Z,64000.00
2018-02-20T10:02:43.446Z,61600.00
2018-02-20T10:03:43.424Z,62176.00
2018-02-20T10:04:43.415Z,64224.00
2018-02-20T10:05:43.392Z,64192.00
2018-02-20T10:06:43.379Z,62464.00
2018-02-20T10:07:43.616Z,67712.00
2018-02-20T10:08:43.352Z,69536.00
2018-02-20T10:09:43.351Z,68736.00
2018-02-20T10:10:43.328Z,66528.00
2018-02-20T10:11:43.307Z,66144.00
2018-02-20T10:12:43.546Z,70624.00
2018-02-20T10:13:43.281Z,71520.00
2018-02-20T10:14:43.268Z,72768.00
2018-02-20T10:15:43.259Z,73088.00
2018-02-20T10:16:43.247Z,75424.00
2018-02-20T10:17:43.237Z,74048.00
2018-02-20T10:18:43.229Z,70848.00
2018-02-20T10:19:43.225Z,73056.00
2018-02-20T10:20:43.208Z,72416.00
2018-02-20T10:21:43.204Z,73280.00
2018-02-20T10:22:43.202Z,71936.00
2018-02-20T10:23:43.183Z,73216.00
2018-02-20T10:24:43.174Z,71936.00
2018-02-20T10:25:43.165Z,75104.00
2018-02-20T10:26:43.166Z,76032.00
2018-02-20T10:27:43.154Z,76096.00
2018-02-20T10:28:43.188Z,78400.00
2018-02-20T10:29:43.142Z,78368.00
2018-02-20T10:30:43.135Z,76928.00
2018-02-20T10:31:43.132Z,77760.00
2018-02-20T10:32:43.425Z,77856.00
2018-02-20T10:33:43.124Z,77216.00
2018-02-20T10:34:43.127Z,79840.00
2018-02-20T10:35:43.116Z,81888.00
2018-02-20T10:36:43.111Z,83392.00
2018-02-20T10:37:43.354Z,83008.00
2018-02-20T10:38:43.104Z,82752.00
2018-02-20T10:39:43.103Z,80064.00
2018-02-20T10:40:43.103Z,78816.00
2018-02-20T10:41:43.096Z,80800.00
2018-02-20T10:42:43.099Z,80960.00
2018-02-20T10:43:43.092Z,82144.00
2018-02-20T10:44:43.090Z,79488.00
2018-02-20T10:45:43.086Z,79104.00
2018-02-20T10:46:43.082Z,78944.00
2018-02-20T10:47:43.082Z,80448.00
2018-02-20T10:48:43.082Z,82368.00
2018-02-20T10:49:43.077Z,84192.00
2018-02-20T10:50:43.081Z,81248.00
2018-02-20T10:51:43.077Z,82688.00
2018-02-20T10:52:43.075Z,81024.00
2018-02-20T10:53:43.075Z,83392.00
2018-02-20T10:54:43.075Z,86368.00
2018-02-20T10:55:43.078Z,86080.00
2018-02-20T10:56:43.075Z,84736.00
2018-02-20T10:57:43.321Z,81568.00
2018-02-20T10:58:43.075Z,83648.00
2018-02-20T10:59:43.071Z,79360.00
2018-02-20T11:00:43.077Z,82784.00
2018-02-20T11:01:43.091Z,85792.00
2018-02-20T11:02:43.323Z,87968.00
2018-02-20T11:03:43.069Z,90688.00
2018-02-20T11:04:43.069Z,90624.00
2018-02-20T11:05:43.069Z,90592.00
2018-02-20T11:06:43.071Z,90528.00
2018-02-20T11:07:43.329Z,89344.00
2018-02-20T11:08:43.070Z,89760.00
2018-02-20T11:09:43.074Z,90848.00
2018-02-20T11:10:43.080Z,91104.00
2018-02-20T11:11:43.076Z,93440.00
2018-02-20T11:12:43.239Z,90560.00
2018-02-20T11:13:43.175Z,90816.00
2018-02-20T11:14:43.075Z,90848.00
2018-02-20T11:15:43.076Z,90112.00
2018-02-20T11:16:44.389Z,85120.00
2018-02-20T11:17:43.076Z,81312.00
2018-02-20T11:18:43.085Z,82688.00
2018-02-20T11:19:43.078Z,85504.00
2018-02-20T11:20:43.078Z,87040.00
2018-02-20T11:21:43.086Z,86432.00
2018-02-20T11:22:43.084Z,86432.00
2018-02-20T11:23:43.084Z,92384.00
2018-02-20T11:24:43.085Z,99904.00
2018-02-20T11:25:43.086Z,106240.00
2018-02-20T11:26:43.091Z,106592.00
2018-02-20T11:27:43.092Z,104096.00
2018-02-20T11:28:43.096Z,99072.00
2018-02-20T11:29:43.093Z,94208.00
2018-02-20T11:30:43.089Z,90112.00
2018-02-20T11:31:43.095Z,86816.00
2018-02-20T11:32:43.346Z,83040.00
2018-02-20T11:33:43.101Z,79968.00
2018-02-20T11:34:43.100Z,81024.00
2018-02-20T11:35:43.100Z,84032.00
2018-02-20T11:36:43.100Z,88672.00
2018-02-20T11:37:43.352Z,89728.00
2018-02-20T11:38:43.110Z,92896.00
2018-02-20T11:39:43.106Z,98144.00
2018-02-20T11:40:43.109Z,102688.00
2018-02-20T11:41:43.110Z,106080.00
2018-02-20T11:42:43.116Z,105792.00
2018-02-20T11:43:43.114Z,104768.00
2018-02-20T11:44:43.117Z,101504.00
2018-02-20T11:45:43.120Z,96896.00
2018-02-20T11:46:43.118Z,88960.00
2018-02-20T11:47:43.117Z,77696.00
2018-02-20T11:48:43.118Z,73120.00
2018-02-20T11:49:43.123Z,75328.00
2018-02-20T11:50:43.124Z,84128.00
2018-02-20T11:51:43.124Z,89344.00
2018-02-20T11:52:43.375Z,88672.00
2018-02-20T11:53:43.125Z,86304.00
2018-02-20T11:54:43.127Z,83616.00
2018-02-20T11:55:43.129Z,80736.00
2018-02-20T11:56:43.130Z,81472.00
2018-02-20T11:57:43.130Z,85120.00
2018-02-20T11:58:43.135Z,91200.00
2018-02-20T11:59:43.136Z,94272.00
2018-02-20T12:00:43.136Z,94080.00
2018-02-20T12:01:43.141Z,93952.00
2018-02-20T12:02:43.387Z,96000.00
2018-02-20T12:03:43.147Z,95680.00
2018-02-20T12:04:43.144Z,97568.00
2018-02-20T12:05:43.146Z,96832.00
2018-02-20T12:06:43.145Z,95808.00
2018-02-20T12:07:43.148Z,95200.00
2018-02-20T12:08:43.147Z,91552.00
2018-02-20T12:09:43.149Z,88576.00
2018-02-20T12:10:43.149Z,84160.00
2018-02-20T12:11:43.152Z,82272.00
2018-02-20T12:12:43.157Z,83168.00
2018-02-20T12:13:43.159Z,86304.00
2018-02-20T12:14:43.154Z,91360.00
2018-02-20T12:15:43.155Z,99200.00
2018-02-20T12:16:43.160Z,98528.00
2018-02-20T12:17:43.160Z,96832.00
2018-02-20T12:18:43.165Z,97376.00
2018-02-20T12:19:43.162Z,94688.00
2018-02-20T12:20:43.164Z,91840.00
2018-02-20T12:21:43.166Z,89376.00
2018-02-20T12:22:43.174Z,88768.00
2018-02-20T12:23:43.181Z,86528.00
2018-02-20T12:24:43.175Z,82048.00
2018-02-20T12:25:43.175Z,86656.00
2018-02-20T12:26:43.191Z,91296.00
2018-02-20T12:27:43.174Z,91456.00
2018-02-20T12:28:43.177Z,89824.00
2018-02-20T12:29:43.176Z,87456.00
2018-02-20T12:30:43.187Z,84544.00
2018-02-20T12:31:43.179Z,84032.00